sensor_id;sensor_type;location;lat;lon;timestamp;P1;durP1;ratioP1;P2;durP2;ratioP2
31378;SDS011;61664;48.112;11.662;2023-03-03T00:01:41;27.60;;;13.90;;
31378;SDS011;61664;48.112;11.662;2023-03-03T00:04:11;31.27;;;14.67;;
31378;SDS011;61664;48.112;11.662;2023-03-03T00:06:38;26.05;;;13.80;;
31378;SDS011;61664;48.112;11.662;2023-03-03T00:09:05;26.58;;;13.82;;
31378;SDS011;61664;48.112;11.662;2023-03-03T00:11:31;32.03;;;14.07;;
31378;SDS011;61664;48.112;11.662;2023-03-03T00:13:58;30.00;;;14.60;;
31378;SDS011;61664;48.112;11.662;2023-03-03T00:19:11;26.08;;;13.23;;
31378;SDS011;61664;48.112;11.662;2023-03-03T00:21:46;24.92;;;12.90;;
31378;SDS011;61664;48.112;11.662;2023-03-03T00:27:45;28.08;;;13.82;;
31378;SDS011;61664;48.112;11.662;2023-03-03T00:30:01;25.95;;;12.95;;
31378;SDS011;61664;48.112;11.662;2023-03-03T00:32:37;26.20;;;13.23;;
31378;SDS011;61664;48.112;11.662;2023-03-03T00:35:25;29.40;;;14.63;;
31378;SDS011;61664;48.112;11.662;2023-03-03T00:37:56;27.55;;;13.52;;
31378;SDS011;61664;48.112;11.662;2023-03-03T00:40:34;31.52;;;14.68;;
31378;SDS011;61664;48.112;11.662;2023-03-03T00:43:12;27.08;;;13.50;;
31378;SDS011;61664;48.112;11.662;2023-03-03T00:45:47;28.50;;;14.10;;
31378;SDS011;61664;48.112;11.662;2023-03-03T00:50:49;25.20;;;13.70;;
31378;SDS011;61664;48.112;11.662;2023-03-03T00:55:49;23.65;;;11.95;;
31378;SDS011;61664;48.112;11.662;2023-03-03T00:58:18;26.17;;;13.27;;
31378;SDS011;61664;48.112;11.662;2023-03-03T01:00:48;28.90;;;13.75;;
31378;SDS011;61664;48.112;11.662;2023-03-03T01:03:22;28.90;;;14.68;;
31378;SDS011;61664;48.112;11.662;2023-03-03T01:05:51;31.30;;;14.48;;
31378;SDS011;61664;48.112;11.662;2023-03-03T01:08:19;28.60;;;14.13;;
31378;SDS011;61664;48.112;11.662;2023-03-03T01:10:49;28.63;;;13.70;;
31378;SDS011;61664;48.112;11.662;2023-03-03T01:13:21;28.85;;;14.48;;
31378;SDS011;61664;48.112;11.662;2023-03-03T01:15:52;25.30;;;13.23;;
31378;SDS011;61664;48.112;11.662;2023-03-03T01:18:19;28.85;;;14.00;;
31378;SDS011;61664;48.112;11.662;2023-03-03T01:20:46;27.38;;;14.05;;
31378;SDS011;61664;48.112;11.662;2023-03-03T01:23:13;27.55;;;13.27;;
31378;SDS011;61664;48.112;11.662;2023-03-03T01:25:40;29.27;;;14.20;;
31378;SDS011;61664;48.112;11.662;2023-03-03T01:28:07;29.55;;;14.70;;
31378;SDS011;61664;48.112;11.662;2023-03-03T01:30:34;26.23;;;14.02;;
31378;SDS011;61664;48.112;11.662;2023-03-03T01:33:02;26.77;;;12.75;;
31378;SDS011;61664;48.112;11.662;2023-03-03T01:35:29;30.10;;;13.75;;
31378;SDS011;61664;48.112;11.662;2023-03-03T01:37:56;29.17;;;14.85;;
31378;SDS011;61664;48.112;11.662;2023-03-03T01:40:25;26.83;;;14.05;;
31378;SDS011;61664;48.112;11.662;2023-03-03T01:47:55;28.38;;;12.63;;
31378;SDS011;61664;48.112;11.662;2023-03-03T01:50:39;22.67;;;12.18;;
31378;SDS011;61664;48.112;11.662;2023-03-03T01:53:19;28.98;;;14.10;;
31378;SDS011;61664;48.112;11.662;2023-03-03T01:55:58;24.58;;;12.25;;
31378;SDS011;61664;48.112;11.662;2023-03-03T01:58:29;27.80;;;13.30;;
31378;SDS011;61664;48.112;11.662;2023-03-03T02:01:03;28.95;;;13.93;;
31378;SDS011;61664;48.112;11.662;2023-03-03T02:03:38;34.42;;;15.55;;
31378;SDS011;61664;48.112;11.662;2023-03-03T02:06:08;31.15;;;14.55;;
31378;SDS011;61664;48.112;11.662;2023-03-03T02:11:35;25.77;;;12.32;;
31378;SDS011;61664;48.112;11.662;2023-03-03T02:14:03;26.40;;;13.15;;
31378;SDS011;61664;48.112;11.662;2023-03-03T02:16:30;28.05;;;13.55;;
31378;SDS011;61664;48.112;11.662;2023-03-03T02:18:58;31.30;;;14.07;;
31378;SDS011;61664;48.112;11.662;2023-03-03T02:21:24;29.65;;;14.65;;
31378;SDS011;61664;48.112;11.662;2023-03-03T02:26:42;28.17;;;12.90;;
31378;SDS011;61664;48.112;11.662;2023-03-03T02:29:11;24.60;;;13.05;;
31378;SDS011;61664;48.112;11.662;2023-03-03T02:31:38;27.42;;;13.57;;
31378;SDS011;61664;48.112;11.662;2023-03-03T02:34:05;29.65;;;13.43;;
31378;SDS011;61664;48.112;11.662;2023-03-03T02:36:33;33.38;;;15.30;;
31378;SDS011;61664;48.112;11.662;2023-03-03T02:44:19;24.52;;;13.07;;
31378;SDS011;61664;48.112;11.662;2023-03-03T02:46:52;28.10;;;14.23;;
31378;SDS011;61664;48.112;11.662;2023-03-03T02:49:25;28.90;;;13.25;;
31378;SDS011;61664;48.112;11.662;2023-03-03T02:51:57;25.77;;;13.05;;
31378;SDS011;61664;48.112;11.662;2023-03-03T02:54:27;26.90;;;13.23;;
31378;SDS011;61664;48.112;11.662;2023-03-03T02:56:56;29.73;;;14.00;;
31378;SDS011;61664;48.112;11.662;2023-03-03T02:59:24;28.27;;;13.93;;
31378;SDS011;61664;48.112;11.662;2023-03-03T03:01:51;30.30;;;14.88;;
31378;SDS011;61664;48.112;11.662;2023-03-03T03:04:20;28.33;;;13.65;;
31378;SDS011;61664;48.112;11.662;2023-03-03T03:06:52;27.67;;;14.23;;
31378;SDS011;61664;48.112;11.662;2023-03-03T03:09:21;28.92;;;13.85;;
31378;SDS011;61664;48.112;11.662;2023-03-03T03:11:50;23.95;;;12.60;;
31378;SDS011;61664;48.112;11.662;2023-03-03T03:14:17;26.73;;;13.43;;
31378;SDS011;61664;48.112;11.662;2023-03-03T03:16:44;25.92;;;12.88;;
31378;SDS011;61664;48.112;11.662;2023-03-03T03:19:11;24.58;;;12.70;;
31378;SDS011;61664;48.112;11.662;2023-03-03T03:21:38;29.05;;;13.95;;
31378;SDS011;61664;48.112;11.662;2023-03-03T03:24:05;25.42;;;12.68;;
31378;SDS011;61664;48.112;11.662;2023-03-03T03:26:32;26.17;;;13.40;;
31378;SDS011;61664;48.112;11.662;2023-03-03T03:28:59;26.20;;;12.65;;
31378;SDS011;61664;48.112;11.662;2023-03-03T03:31:26;28.30;;;13.27;;
31378;SDS011;61664;48.112;11.662;2023-03-03T03:33:53;24.58;;;12.93;;
31378;SDS011;61664;48.112;11.662;2023-03-03T03:36:20;26.05;;;13.77;;
31378;SDS011;61664;48.112;11.662;2023-03-03T03:38:47;28.40;;;13.68;;
31378;SDS011;61664;48.112;11.662;2023-03-03T03:41:14;24.85;;;13.18;;
31378;SDS011;61664;48.112;11.662;2023-03-03T03:43:41;28.08;;;13.30;;
31378;SDS011;61664;48.112;11.662;2023-03-03T03:46:08;24.35;;;12.10;;
31378;SDS011;61664;48.112;11.662;2023-03-03T03:48:35;26.88;;;13.52;;
31378;SDS011;61664;48.112;11.662;2023-03-03T03:51:02;27.10;;;13.70;;
31378;SDS011;61664;48.112;11.662;2023-03-03T03:53:29;26.55;;;13.95;;
31378;SDS011;61664;48.112;11.662;2023-03-03T03:55:57;24.48;;;13.70;;
31378;SDS011;61664;48.112;11.662;2023-03-03T03:58:23;27.15;;;13.35;;
31378;SDS011;61664;48.112;11.662;2023-03-03T04:00:50;23.80;;;13.40;;
31378;SDS011;61664;48.112;11.662;2023-03-03T04:03:17;25.52;;;12.95;;
31378;SDS011;61664;48.112;11.662;2023-03-03T04:05:45;26.50;;;13.70;;
31378;SDS011;61664;48.112;11.662;2023-03-03T04:08:12;26.30;;;13.68;;
31378;SDS011;61664;48.112;11.662;2023-03-03T04:10:39;25.52;;;13.43;;
31378;SDS011;61664;48.112;11.662;2023-03-03T04:13:06;23.77;;;13.00;;
31378;SDS011;61664;48.112;11.662;2023-03-03T04:15:33;29.23;;;13.48;;
31378;SDS011;61664;48.112;11.662;2023-03-03T04:18:00;26.35;;;13.88;;
31378;SDS011;61664;48.112;11.662;2023-03-03T04:20:28;27.02;;;13.98;;
31378;SDS011;61664;48.112;11.662;2023-03-03T04:22:55;27.25;;;13.50;;
31378;SDS011;61664;48.112;11.662;2023-03-03T04:25:23;29.08;;;14.32;;
31378;SDS011;61664;48.112;11.662;2023-03-03T04:27:50;30.30;;;14.90;;
31378;SDS011;61664;48.112;11.662;2023-03-03T04:30:18;28.27;;;14.35;;
31378;SDS011;61664;48.112;11.662;2023-03-03T04:32:45;27.00;;;13.68;;
31378;SDS011;61664;48.112;11.662;2023-03-03T04:35:12;26.33;;;13.95;;
31378;SDS011;61664;48.112;11.662;2023-03-03T04:37:39;24.45;;;14.15;;
31378;SDS011;61664;48.112;11.662;2023-03-03T04:40:06;25.35;;;13.45;;
31378;SDS011;61664;48.112;11.662;2023-03-03T04:42:35;26.92;;;13.85;;
31378;SDS011;61664;48.112;11.662;2023-03-03T04:45:04;29.02;;;14.20;;
31378;SDS011;61664;48.112;11.662;2023-03-03T04:47:32;24.25;;;13.40;;
31378;SDS011;61664;48.112;11.662;2023-03-03T04:49:59;28.70;;;14.45;;
31378;SDS011;61664;48.112;11.662;2023-03-03T04:52:26;24.73;;;12.80;;
31378;SDS011;61664;48.112;11.662;2023-03-03T04:54:54;28.42;;;14.15;;
31378;SDS011;61664;48.112;11.662;2023-03-03T04:57:21;26.00;;;13.98;;
31378;SDS011;61664;48.112;11.662;2023-03-03T04:59:48;27.50;;;14.30;;
31378;SDS011;61664;48.112;11.662;2023-03-03T05:02:15;29.15;;;15.43;;
31378;SDS011;61664;48.112;11.662;2023-03-03T05:04:42;24.42;;;13.95;;
31378;SDS011;61664;48.112;11.662;2023-03-03T05:07:09;23.85;;;12.82;;
31378;SDS011;61664;48.112;11.662;2023-03-03T05:09:36;30.10;;;14.82;;
31378;SDS011;61664;48.112;11.662;2023-03-03T05:12:03;27.30;;;14.68;;
31378;SDS011;61664;48.112;11.662;2023-03-03T05:14:31;27.30;;;13.73;;
31378;SDS011;61664;48.112;11.662;2023-03-03T05:16:57;26.27;;;15.02;;
31378;SDS011;61664;48.112;11.662;2023-03-03T05:19:24;25.70;;;13.95;;
31378;SDS011;61664;48.112;11.662;2023-03-03T05:21:55;32.35;;;16.25;;
31378;SDS011;61664;48.112;11.662;2023-03-03T05:24:22;25.77;;;13.98;;
31378;SDS011;61664;48.112;11.662;2023-03-03T05:26:49;28.63;;;14.23;;
31378;SDS011;61664;48.112;11.662;2023-03-03T05:29:16;25.85;;;14.82;;
31378;SDS011;61664;48.112;11.662;2023-03-03T05:32:03;29.58;;;15.00;;
31378;SDS011;61664;48.112;11.662;2023-03-03T05:34:30;30.08;;;14.93;;
31378;SDS011;61664;48.112;11.662;2023-03-03T05:36:57;29.42;;;15.70;;
31378;SDS011;61664;48.112;11.662;2023-03-03T05:39:24;27.63;;;14.20;;
31378;SDS011;61664;48.112;11.662;2023-03-03T05:41:52;27.40;;;14.35;;
31378;SDS011;61664;48.112;11.662;2023-03-03T05:44:19;28.33;;;14.50;;
31378;SDS011;61664;48.112;11.662;2023-03-03T05:46:46;26.88;;;14.27;;
31378;SDS011;61664;48.112;11.662;2023-03-03T05:49:13;27.48;;;14.73;;
31378;SDS011;61664;48.112;11.662;2023-03-03T05:51:40;28.80;;;14.80;;
31378;SDS011;61664;48.112;11.662;2023-03-03T05:54:07;26.17;;;14.40;;
31378;SDS011;61664;48.112;11.662;2023-03-03T05:56:33;31.30;;;15.48;;
31378;SDS011;61664;48.112;11.662;2023-03-03T05:59:01;26.35;;;13.70;;
31378;SDS011;61664;48.112;11.662;2023-03-03T06:01:28;27.52;;;15.23;;
31378;SDS011;61664;48.112;11.662;2023-03-03T06:03:55;30.67;;;15.63;;
31378;SDS011;61664;48.112;11.662;2023-03-03T06:06:21;28.85;;;14.73;;
31378;SDS011;61664;48.112;11.662;2023-03-03T06:08:48;25.00;;;13.82;;
31378;SDS011;61664;48.112;11.662;2023-03-03T06:11:15;29.98;;;15.65;;
31378;SDS011;61664;48.112;11.662;2023-03-03T06:13:44;34.10;;;15.73;;
31378;SDS011;61664;48.112;11.662;2023-03-03T06:16:11;29.98;;;16.90;;
31378;SDS011;61664;48.112;11.662;2023-03-03T06:18:38;32.78;;;16.42;;
31378;SDS011;61664;48.112;11.662;2023-03-03T06:21:05;30.35;;;15.85;;
31378;SDS011;61664;48.112;11.662;2023-03-03T06:23:32;32.13;;;15.50;;
31378;SDS011;61664;48.112;11.662;2023-03-03T06:25:59;37.22;;;17.20;;
31378;SDS011;61664;48.112;11.662;2023-03-03T06:28:25;34.17;;;17.73;;
31378;SDS011;61664;48.112;11.662;2023-03-03T06:30:53;32.78;;;16.70;;
31378;SDS011;61664;48.112;11.662;2023-03-03T06:33:22;29.80;;;16.20;;
31378;SDS011;61664;48.112;11.662;2023-03-03T06:35:49;33.90;;;17.33;;
31378;SDS011;61664;48.112;11.662;2023-03-03T06:38:18;33.40;;;16.35;;
31378;SDS011;61664;48.112;11.662;2023-03-03T06:40:46;35.83;;;17.38;;
31378;SDS011;61664;48.112;11.662;2023-03-03T06:43:13;31.35;;;15.93;;
31378;SDS011;61664;48.112;11.662;2023-03-03T06:45:40;34.45;;;16.98;;
31378;SDS011;61664;48.112;11.662;2023-03-03T06:48:08;32.03;;;17.77;;
31378;SDS011;61664;48.112;11.662;2023-03-03T06:50:35;32.65;;;16.65;;
31378;SDS011;61664;48.112;11.662;2023-03-03T06:53:12;39.42;;;19.50;;
31378;SDS011;61664;48.112;11.662;2023-03-03T06:55:41;41.08;;;19.00;;
31378;SDS011;61664;48.112;11.662;2023-03-03T06:58:11;38.10;;;18.63;;
31378;SDS011;61664;48.112;11.662;2023-03-03T07:00:55;41.55;;;20.02;;
31378;SDS011;61664;48.112;11.662;2023-03-03T07:03:42;40.30;;;19.40;;
31378;SDS011;61664;48.112;11.662;2023-03-03T07:06:14;36.95;;;18.80;;
31378;SDS011;61664;48.112;11.662;2023-03-03T07:08:51;36.13;;;18.73;;
31378;SDS011;61664;48.112;11.662;2023-03-03T07:11:19;45.13;;;21.38;;
31378;SDS011;61664;48.112;11.662;2023-03-03T07:13:49;41.40;;;20.58;;
31378;SDS011;61664;48.112;11.662;2023-03-03T07:16:24;39.28;;;19.48;;
31378;SDS011;61664;48.112;11.662;2023-03-03T07:18:53;42.15;;;20.17;;
31378;SDS011;61664;48.112;11.662;2023-03-03T07:21:30;42.35;;;20.80;;
31378;SDS011;61664;48.112;11.662;2023-03-03T07:26:59;39.47;;;19.88;;
31378;SDS011;61664;48.112;11.662;2023-03-03T07:29:32;42.80;;;21.05;;
31378;SDS011;61664;48.112;11.662;2023-03-03T07:32:01;45.55;;;21.55;;
31378;SDS011;61664;48.112;11.662;2023-03-03T07:34:39;42.97;;;21.42;;
31378;SDS011;61664;48.112;11.662;2023-03-03T07:37:26;46.63;;;21.65;;
31378;SDS011;61664;48.112;11.662;2023-03-03T07:40:00;43.97;;;21.20;;
31378;SDS011;61664;48.112;11.662;2023-03-03T07:48:53;34.97;;;17.77;;
31378;SDS011;61664;48.112;11.662;2023-03-03T07:51:36;44.00;;;20.50;;
31378;SDS011;61664;48.112;11.662;2023-03-03T07:54:16;42.13;;;20.27;;
31378;SDS011;61664;48.112;11.662;2023-03-03T07:57:00;41.70;;;21.23;;
31378;SDS011;61664;48.112;11.662;2023-03-03T07:59:37;45.15;;;21.38;;
31378;SDS011;61664;48.112;11.662;2023-03-03T08:02:26;48.90;;;22.83;;
31378;SDS011;61664;48.112;11.662;2023-03-03T08:10:55;45.95;;;20.90;;
31378;SDS011;61664;48.112;11.662;2023-03-03T08:13:27;42.80;;;20.92;;
31378;SDS011;61664;48.112;11.662;2023-03-03T08:15:56;44.33;;;22.52;;
31378;SDS011;61664;48.112;11.662;2023-03-03T08:18:49;42.92;;;21.33;;
31378;SDS011;61664;48.112;11.662;2023-03-03T08:21:19;43.40;;;22.02;;
31378;SDS011;61664;48.112;11.662;2023-03-03T08:23:51;44.10;;;23.85;;
31378;SDS011;61664;48.112;11.662;2023-03-03T08:26:20;46.85;;;22.95;;
31378;SDS011;61664;48.112;11.662;2023-03-03T08:28:49;45.75;;;22.92;;
31378;SDS011;61664;48.112;11.662;2023-03-03T08:31:16;50.20;;;24.65;;
31378;SDS011;61664;48.112;11.662;2023-03-03T08:34:04;47.97;;;22.95;;
31378;SDS011;61664;48.112;11.662;2023-03-03T08:36:31;47.55;;;22.83;;
31378;SDS011;61664;48.112;11.662;2023-03-03T08:39:00;44.58;;;22.23;;
31378;SDS011;61664;48.112;11.662;2023-03-03T08:41:29;44.88;;;22.67;;
31378;SDS011;61664;48.112;11.662;2023-03-03T08:43:56;46.75;;;22.40;;
31378;SDS011;61664;48.112;11.662;2023-03-03T08:46:23;43.90;;;23.40;;
31378;SDS011;61664;48.112;11.662;2023-03-03T08:48:50;51.72;;;25.15;;
31378;SDS011;61664;48.112;11.662;2023-03-03T08:51:17;47.35;;;23.40;;
31378;SDS011;61664;48.112;11.662;2023-03-03T08:53:45;49.22;;;24.55;;
31378;SDS011;61664;48.112;11.662;2023-03-03T08:56:12;43.17;;;24.05;;
31378;SDS011;61664;48.112;11.662;2023-03-03T08:58:39;46.08;;;23.30;;
31378;SDS011;61664;48.112;11.662;2023-03-03T09:01:27;43.50;;;22.60;;
31378;SDS011;61664;48.112;11.662;2023-03-03T09:03:54;47.08;;;23.52;;
31378;SDS011;61664;48.112;11.662;2023-03-03T09:06:20;45.53;;;24.02;;
31378;SDS011;61664;48.112;11.662;2023-03-03T09:08:47;44.47;;;23.83;;
31378;SDS011;61664;48.112;11.662;2023-03-03T09:11:19;42.72;;;22.63;;
31378;SDS011;61664;48.112;11.662;2023-03-03T09:14:03;44.78;;;23.17;;
31378;SDS011;61664;48.112;11.662;2023-03-03T09:16:38;44.45;;;23.17;;
31378;SDS011;61664;48.112;11.662;2023-03-03T09:21:52;54.55;;;25.05;;
31378;SDS011;61664;48.112;11.662;2023-03-03T09:24:29;44.03;;;22.77;;
31378;SDS011;61664;48.112;11.662;2023-03-03T09:27:00;52.35;;;25.00;;
31378;SDS011;61664;48.112;11.662;2023-03-03T09:29:35;44.25;;;23.33;;
31378;SDS011;61664;48.112;11.662;2023-03-03T09:41:13;43.58;;;22.48;;
31378;SDS011;61664;48.112;11.662;2023-03-03T09:49:54;40.20;;;23.30;;
31378;SDS011;61664;48.112;11.662;2023-03-03T10:01:54;48.60;;;24.08;;
31378;SDS011;61664;48.112;11.662;2023-03-03T10:13:07;43.95;;;23.95;;
31378;SDS011;61664;48.112;11.662;2023-03-03T10:16:21;39.58;;;21.42;;
31378;SDS011;61664;48.112;11.662;2023-03-03T10:24:43;46.22;;;22.85;;
31378;SDS011;61664;48.112;11.662;2023-03-03T10:36:31;40.75;;;22.42;;
31378;SDS011;61664;48.112;11.662;2023-03-03T10:39:19;38.15;;;21.35;;
31378;SDS011;61664;48.112;11.662;2023-03-03T10:53:33;42.92;;;23.73;;
31378;SDS011;61664;48.112;11.662;2023-03-03T10:56:32;43.85;;;23.35;;
31378;SDS011;61664;48.112;11.662;2023-03-03T11:00:02;41.00;;;22.73;;
31378;SDS011;61664;48.112;11.662;2023-03-03T11:02:46;47.65;;;23.88;;
31378;SDS011;61664;48.112;11.662;2023-03-03T11:05:59;41.70;;;22.55;;
31378;SDS011;61664;48.112;11.662;2023-03-03T11:08:34;41.95;;;24.17;;
31378;SDS011;61664;48.112;11.662;2023-03-03T11:14:17;39.83;;;21.98;;
31378;SDS011;61664;48.112;11.662;2023-03-03T11:17:04;39.97;;;21.83;;
31378;SDS011;61664;48.112;11.662;2023-03-03T11:23:48;42.67;;;22.85;;
31378;SDS011;61664;48.112;11.662;2023-03-03T11:29:14;46.00;;;24.02;;
31378;SDS011;61664;48.112;11.662;2023-03-03T11:32:15;38.67;;;22.52;;
31378;SDS011;61664;48.112;11.662;2023-03-03T11:41:37;40.70;;;22.35;;
31378;SDS011;61664;48.112;11.662;2023-03-03T11:55:25;37.00;;;21.13;;
31378;SDS011;61664;48.112;11.662;2023-03-03T11:58:10;40.35;;;22.42;;
31378;SDS011;61664;48.112;11.662;2023-03-03T12:00:53;37.70;;;22.15;;
31378;SDS011;61664;48.112;11.662;2023-03-03T12:03:53;38.05;;;21.92;;
31378;SDS011;61664;48.112;11.662;2023-03-03T12:12:36;39.95;;;22.45;;
31378;SDS011;61664;48.112;11.662;2023-03-03T12:15:26;40.10;;;21.90;;
31378;SDS011;61664;48.112;11.662;2023-03-03T12:32:59;32.53;;;20.08;;
31378;SDS011;61664;48.112;11.662;2023-03-03T12:35:48;38.05;;;20.95;;
31378;SDS011;61664;48.112;11.662;2023-03-03T12:41:53;35.83;;;21.13;;
31378;SDS011;61664;48.112;11.662;2023-03-03T12:44:43;42.25;;;22.73;;
31378;SDS011;61664;48.112;11.662;2023-03-03T12:47:50;38.47;;;20.95;;
31378;SDS011;61664;48.112;11.662;2023-03-03T12:50:29;35.10;;;20.13;;
31378;SDS011;61664;48.112;11.662;2023-03-03T12:56:51;34.90;;;21.15;;
31378;SDS011;61664;48.112;11.662;2023-03-03T13:02:19;38.55;;;21.52;;
31378;SDS011;61664;48.112;11.662;2023-03-03T13:07:50;39.35;;;22.08;;
31378;SDS011;61664;48.112;11.662;2023-03-03T13:11:17;35.72;;;21.42;;
31378;SDS011;61664;48.112;11.662;2023-03-03T13:20:02;36.33;;;20.63;;
31378;SDS011;61664;48.112;11.662;2023-03-03T13:23:02;37.63;;;21.13;;
31378;SDS011;61664;48.112;11.662;2023-03-03T13:26:08;37.15;;;21.45;;
31378;SDS011;61664;48.112;11.662;2023-03-03T13:31:28;39.67;;;23.42;;
31378;SDS011;61664;48.112;11.662;2023-03-03T13:37:44;36.70;;;21.27;;
31378;SDS011;61664;48.112;11.662;2023-03-03T13:40:23;35.17;;;20.42;;
31378;SDS011;61664;48.112;11.662;2023-03-03T13:43:28;36.67;;;21.48;;
31378;SDS011;61664;48.112;11.662;2023-03-03T13:51:52;39.28;;;23.08;;
31378;SDS011;61664;48.112;11.662;2023-03-03T14:06:23;36.25;;;21.02;;
31378;SDS011;61664;48.112;11.662;2023-03-03T14:09:03;32.83;;;21.00;;
31378;SDS011;61664;48.112;11.662;2023-03-03T14:14:58;36.30;;;20.50;;
31378;SDS011;61664;48.112;11.662;2023-03-03T14:17:37;39.92;;;22.42;;
31378;SDS011;61664;48.112;11.662;2023-03-03T14:20:46;38.08;;;20.70;;
31378;SDS011;61664;48.112;11.662;2023-03-03T14:23:22;37.25;;;20.23;;
31378;SDS011;61664;48.112;11.662;2023-03-03T14:26:06;34.65;;;19.88;;
31378;SDS011;61664;48.112;11.662;2023-03-03T14:28:38;33.38;;;20.45;;
31378;SDS011;61664;48.112;11.662;2023-03-03T14:31:22;34.28;;;20.48;;
31378;SDS011;61664;48.112;11.662;2023-03-03T14:34:00;35.70;;;20.10;;
31378;SDS011;61664;48.112;11.662;2023-03-03T14:36:30;34.65;;;20.23;;
31378;SDS011;61664;48.112;11.662;2023-03-03T14:39:01;29.20;;;18.83;;
31378;SDS011;61664;48.112;11.662;2023-03-03T14:41:55;25.85;;;17.98;;
31378;SDS011;61664;48.112;11.662;2023-03-03T14:44:28;29.42;;;18.83;;
31378;SDS011;61664;48.112;11.662;2023-03-03T14:49:35;31.73;;;19.05;;
31378;SDS011;61664;48.112;11.662;2023-03-03T14:54:41;25.98;;;18.40;;
31378;SDS011;61664;48.112;11.662;2023-03-03T14:57:22;34.92;;;19.23;;
31378;SDS011;61664;48.112;11.662;2023-03-03T15:05:51;29.42;;;18.67;;
31378;SDS011;61664;48.112;11.662;2023-03-03T15:08:33;25.27;;;17.23;;
31378;SDS011;61664;48.112;11.662;2023-03-03T15:14:09;27.35;;;18.40;;
31378;SDS011;61664;48.112;11.662;2023-03-03T15:16:41;25.52;;;18.23;;
31378;SDS011;61664;48.112;11.662;2023-03-03T15:19:21;23.10;;;17.02;;
31378;SDS011;61664;48.112;11.662;2023-03-03T15:25:59;22.55;;;16.20;;
31378;SDS011;61664;48.112;11.662;2023-03-03T15:28:42;27.65;;;18.00;;
31378;SDS011;61664;48.112;11.662;2023-03-03T15:49:30;23.27;;;16.35;;
31378;SDS011;61664;48.112;11.662;2023-03-03T15:55:05;23.83;;;16.30;;
31378;SDS011;61664;48.112;11.662;2023-03-03T16:04:12;26.48;;;16.20;;
31378;SDS011;61664;48.112;11.662;2023-03-03T16:06:56;34.40;;;19.13;;
31378;SDS011;61664;48.112;11.662;2023-03-03T16:12:46;34.20;;;20.80;;
31378;SDS011;61664;48.112;11.662;2023-03-03T16:21:15;36.08;;;20.35;;
31378;SDS011;61664;48.112;11.662;2023-03-03T16:23:57;28.83;;;18.33;;
31378;SDS011;61664;48.112;11.662;2023-03-03T16:26:45;29.23;;;17.50;;
31378;SDS011;61664;48.112;11.662;2023-03-03T16:32:07;30.95;;;18.50;;
31378;SDS011;61664;48.112;11.662;2023-03-03T16:34:55;31.48;;;18.45;;
31378;SDS011;61664;48.112;11.662;2023-03-03T16:37:37;27.67;;;16.83;;
31378;SDS011;61664;48.112;11.662;2023-03-03T16:40:34;32.13;;;19.48;;
31378;SDS011;61664;48.112;11.662;2023-03-03T16:54:43;35.80;;;20.08;;
31378;SDS011;61664;48.112;11.662;2023-03-03T16:57:31;32.17;;;19.60;;
31378;SDS011;61664;48.112;11.662;2023-03-03T17:00:28;36.58;;;20.10;;
31378;SDS011;61664;48.112;11.662;2023-03-03T17:03:15;33.67;;;21.30;;
31378;SDS011;61664;48.112;11.662;2023-03-03T17:09:26;32.90;;;17.77;;
31378;SDS011;61664;48.112;11.662;2023-03-03T17:12:48;35.55;;;19.73;;
31378;SDS011;61664;48.112;11.662;2023-03-03T17:15:48;31.40;;;18.75;;
31378;SDS011;61664;48.112;11.662;2023-03-03T17:18:59;29.92;;;18.73;;
31378;SDS011;61664;48.112;11.662;2023-03-03T17:21:58;33.60;;;19.48;;
31378;SDS011;61664;48.112;11.662;2023-03-03T17:36:38;29.70;;;18.92;;
31378;SDS011;61664;48.112;11.662;2023-03-03T17:42:44;33.97;;;19.45;;
31378;SDS011;61664;48.112;11.662;2023-03-03T17:45:40;31.73;;;19.88;;
31378;SDS011;61664;48.112;11.662;2023-03-03T17:53:44;33.33;;;19.67;;
31378;SDS011;61664;48.112;11.662;2023-03-03T17:56:33;33.10;;;19.73;;
31378;SDS011;61664;48.112;11.662;2023-03-03T18:08:32;45.45;;;22.98;;
31378;SDS011;61664;48.112;11.662;2023-03-03T18:11:58;39.67;;;21.83;;
31378;SDS011;61664;48.112;11.662;2023-03-03T18:17:27;39.38;;;21.10;;
31378;SDS011;61664;48.112;11.662;2023-03-03T18:22:47;40.67;;;21.67;;
31378;SDS011;61664;48.112;11.662;2023-03-03T18:28:47;34.78;;;21.10;;
31378;SDS011;61664;48.112;11.662;2023-03-03T18:31:22;43.38;;;23.02;;
31378;SDS011;61664;48.112;11.662;2023-03-03T18:36:56;41.28;;;22.42;;
31378;SDS011;61664;48.112;11.662;2023-03-03T18:39:46;42.70;;;23.13;;
31378;SDS011;61664;48.112;11.662;2023-03-03T18:44:42;46.80;;;24.45;;
31378;SDS011;61664;48.112;11.662;2023-03-03T18:47:10;43.42;;;24.42;;
31378;SDS011;61664;48.112;11.662;2023-03-03T18:49:51;43.08;;;23.67;;
31378;SDS011;61664;48.112;11.662;2023-03-03T18:52:31;42.25;;;21.40;;
31378;SDS011;61664;48.112;11.662;2023-03-03T18:55:23;42.00;;;22.20;;
31378;SDS011;61664;48.112;11.662;2023-03-03T19:09:10;42.67;;;21.85;;
31378;SDS011;61664;48.112;11.662;2023-03-03T19:11:54;43.17;;;22.38;;
31378;SDS011;61664;48.112;11.662;2023-03-03T19:16:56;45.80;;;21.30;;
31378;SDS011;61664;48.112;11.662;2023-03-03T19:22:59;37.17;;;21.23;;
31378;SDS011;61664;48.112;11.662;2023-03-03T19:25:32;41.63;;;22.15;;
31378;SDS011;61664;48.112;11.662;2023-03-03T19:28:02;37.92;;;21.27;;
31378;SDS011;61664;48.112;11.662;2023-03-03T19:30:46;39.67;;;21.45;;
31378;SDS011;61664;48.112;11.662;2023-03-03T19:45:15;42.53;;;21.67;;
31378;SDS011;61664;48.112;11.662;2023-03-03T19:47:52;42.05;;;21.05;;
31378;SDS011;61664;48.112;11.662;2023-03-03T19:50:39;40.50;;;21.17;;
31378;SDS011;61664;48.112;11.662;2023-03-03T19:59:20;38.70;;;21.63;;
31378;SDS011;61664;48.112;11.662;2023-03-03T20:07:52;41.45;;;20.98;;
31378;SDS011;61664;48.112;11.662;2023-03-03T20:10:59;41.47;;;20.30;;
31378;SDS011;61664;48.112;11.662;2023-03-03T20:22:09;46.92;;;23.13;;
31378;SDS011;61664;48.112;11.662;2023-03-03T20:48:31;45.22;;;22.95;;
31378;SDS011;61664;48.112;11.662;2023-03-03T21:05:56;39.50;;;21.15;;
31378;SDS011;61664;48.112;11.662;2023-03-03T21:13:57;48.95;;;22.98;;
31378;SDS011;61664;48.112;11.662;2023-03-03T21:16:41;44.55;;;22.35;;
31378;SDS011;61664;48.112;11.662;2023-03-03T21:19:09;48.15;;;23.73;;
31378;SDS011;61664;48.112;11.662;2023-03-03T21:21:47;48.83;;;23.77;;
31378;SDS011;61664;48.112;11.662;2023-03-03T21:24:15;52.10;;;24.88;;
31378;SDS011;61664;48.112;11.662;2023-03-03T21:26:47;43.78;;;22.35;;
31378;SDS011;61664;48.112;11.662;2023-03-03T21:29:25;49.50;;;24.67;;
31378;SDS011;61664;48.112;11.662;2023-03-03T21:31:56;41.80;;;21.58;;
31378;SDS011;61664;48.112;11.662;2023-03-03T21:36:53;45.55;;;23.52;;
31378;SDS011;61664;48.112;11.662;2023-03-03T21:39:23;48.83;;;24.70;;
31378;SDS011;61664;48.112;11.662;2023-03-03T21:42:06;44.90;;;22.05;;
31378;SDS011;61664;48.112;11.662;2023-03-03T21:49:49;38.50;;;19.20;;
31378;SDS011;61664;48.112;11.662;2023-03-03T21:52:18;39.47;;;20.50;;